sensor_id;sensor_type;location;lat;lon;timestamp;P1;durP1;ratioP1;P2;durP2;ratioP2
21010;SDS011;10663;42.714;23.274;2023-11-19T00:00:12;4.30;;;3.77;;
21010;SDS011;10663;42.714;23.274;2023-11-19T00:01:43;4.20;;;3.80;;
21010;SDS011;10663;42.714;23.274;2023-11-19T00:03:13;4.00;;;3.60;;
21010;SDS011;10663;42.714;23.274;2023-11-19T00:04:44;3.53;;;3.20;;
21010;SDS011;10663;42.714;23.274;2023-11-19T00:06:15;3.60;;;3.30;;
21010;SDS011;10663;42.714;23.274;2023-11-19T00:07:47;3.83;;;3.53;;
21010;SDS011;10663;42.714;23.274;2023-11-19T00:09:18;4.53;;;3.40;;
21010;SDS011;10663;42.714;23.274;2023-11-19T00:10:49;3.80;;;3.50;;
21010;SDS011;10663;42.714;23.274;2023-11-19T00:12:22;4.18;;;3.50;;
21010;SDS011;10663;42.714;23.274;2023-11-19T00:13:54;3.88;;;3.58;;
21010;SDS011;10663;42.714;23.274;2023-11-19T00:15:25;3.80;;;3.40;;
21010;SDS011;10663;42.714;23.274;2023-11-19T00:16:56;4.03;;;3.63;;
21010;SDS011;10663;42.714;23.274;2023-11-19T00:18:27;3.65;;;3.35;;
21010;SDS011;10663;42.714;23.274;2023-11-19T00:19:57;4.03;;;3.63;;
21010;SDS011;10663;42.714;23.274;2023-11-19T00:21:28;3.80;;;3.50;;
21010;SDS011;10663;42.714;23.274;2023-11-19T00:22:59;4.00;;;3.60;;
21010;SDS011;10663;42.714;23.274;2023-11-19T00:24:31;4.45;;;3.60;;
21010;SDS011;10663;42.714;23.274;2023-11-19T00:26:02;4.60;;;3.75;;
21010;SDS011;10663;42.714;23.274;2023-11-19T00:27:36;3.70;;;3.40;;
21010;SDS011;10663;42.714;23.274;2023-11-19T00:29:10;3.92;;;3.53;;
21010;SDS011;10663;42.714;23.274;2023-11-19T00:30:40;4.28;;;3.85;;
21010;SDS011;10663;42.714;23.274;2023-11-19T00:32:11;4.07;;;3.67;;
21010;SDS011;10663;42.714;23.274;2023-11-19T00:33:42;4.73;;;4.03;;
21010;SDS011;10663;42.714;23.274;2023-11-19T00:35:13;4.17;;;3.77;;
21010;SDS011;10663;42.714;23.274;2023-11-19T00:36:46;4.10;;;3.70;;
21010;SDS011;10663;42.714;23.274;2023-11-19T00:38:17;4.30;;;3.90;;
21010;SDS011;10663;42.714;23.274;2023-11-19T00:39:48;3.90;;;3.50;;
21010;SDS011;10663;42.714;23.274;2023-11-19T00:41:19;4.47;;;3.97;;
21010;SDS011;10663;42.714;23.274;2023-11-19T00:42:49;4.22;;;3.83;;
21010;SDS011;10663;42.714;23.274;2023-11-19T00:44:20;4.30;;;3.70;;
21010;SDS011;10663;42.714;23.274;2023-11-19T00:45:52;4.55;;;4.05;;
21010;SDS011;10663;42.714;23.274;2023-11-19T00:47:22;4.30;;;3.83;;
21010;SDS011;10663;42.714;23.274;2023-11-19T00:48:53;3.97;;;3.58;;
21010;SDS011;10663;42.714;23.274;2023-11-19T00:50:25;4.53;;;4.13;;
21010;SDS011;10663;42.714;23.274;2023-11-19T00:51:56;4.60;;;4.20;;
21010;SDS011;10663;42.714;23.274;2023-11-19T00:53:26;4.13;;;3.73;;
21010;SDS011;10663;42.714;23.274;2023-11-19T00:54:57;4.70;;;4.20;;
21010;SDS011;10663;42.714;23.274;2023-11-19T00:56:28;4.10;;;3.80;;
21010;SDS011;10663;42.714;23.274;2023-11-19T00:57:59;4.27;;;3.73;;
21010;SDS011;10663;42.714;23.274;2023-11-19T00:59:29;4.25;;;3.92;;
21010;SDS011;10663;42.714;23.274;2023-11-19T01:01:00;4.20;;;3.80;;
21010;SDS011;10663;42.714;23.274;2023-11-19T01:02:31;4.28;;;3.55;;
21010;SDS011;10663;42.714;23.274;2023-11-19T01:04:02;4.10;;;3.80;;
21010;SDS011;10663;42.714;23.274;2023-11-19T01:05:32;5.10;;;3.78;;
21010;SDS011;10663;42.714;23.274;2023-11-19T01:07:04;3.97;;;3.67;;
21010;SDS011;10663;42.714;23.274;2023-11-19T01:08:35;4.97;;;3.83;;
21010;SDS011;10663;42.714;23.274;2023-11-19T01:10:07;5.03;;;3.90;;
21010;SDS011;10663;42.714;23.274;2023-11-19T01:11:38;4.55;;;4.15;;
21010;SDS011;10663;42.714;23.274;2023-11-19T01:13:09;4.28;;;3.88;;
21010;SDS011;10663;42.714;23.274;2023-11-19T01:14:40;3.95;;;3.63;;
21010;SDS011;10663;42.714;23.274;2023-11-19T01:16:13;4.72;;;3.65;;
21010;SDS011;10663;42.714;23.274;2023-11-19T01:17:44;3.70;;;3.40;;
21010;SDS011;10663;42.714;23.274;2023-11-19T01:19:16;3.53;;;3.22;;
21010;SDS011;10663;42.714;23.274;2023-11-19T01:20:47;3.83;;;3.53;;
21010;SDS011;10663;42.714;23.274;2023-11-19T01:22:18;3.90;;;3.35;;
21010;SDS011;10663;42.714;23.274;2023-11-19T01:23:49;3.95;;;3.65;;
21010;SDS011;10663;42.714;23.274;2023-11-19T01:25:20;3.63;;;3.33;;
21010;SDS011;10663;42.714;23.274;2023-11-19T01:26:50;3.50;;;3.20;;
21010;SDS011;10663;42.714;23.274;2023-11-19T01:28:22;4.15;;;3.78;;
21010;SDS011;10663;42.714;23.274;2023-11-19T01:29:52;3.73;;;3.43;;
21010;SDS011;10663;42.714;23.274;2023-11-19T01:31:23;3.63;;;3.33;;
21010;SDS011;10663;42.714;23.274;2023-11-19T01:32:54;4.15;;;3.50;;
21010;SDS011;10663;42.714;23.274;2023-11-19T01:34:26;3.50;;;3.20;;
21010;SDS011;10663;42.714;23.274;2023-11-19T01:35:56;3.60;;;3.30;;
21010;SDS011;10663;42.714;23.274;2023-11-19T01:37:29;3.60;;;3.30;;
21010;SDS011;10663;42.714;23.274;2023-11-19T01:38:59;3.92;;;3.20;;
21010;SDS011;10663;42.714;23.274;2023-11-19T01:40:30;3.85;;;3.50;;
21010;SDS011;10663;42.714;23.274;2023-11-19T01:42:01;4.22;;;3.60;;
21010;SDS011;10663;42.714;23.274;2023-11-19T01:43:32;3.63;;;3.33;;
21010;SDS011;10663;42.714;23.274;2023-11-19T01:45:04;5.07;;;3.60;;
21010;SDS011;10663;42.714;23.274;2023-11-19T01:46:40;3.88;;;3.47;;
21010;SDS011;10663;42.714;23.274;2023-11-19T01:48:12;3.53;;;3.17;;
21010;SDS011;10663;42.714;23.274;2023-11-19T01:49:44;3.80;;;3.40;;
21010;SDS011;10663;42.714;23.274;2023-11-19T01:51:15;3.47;;;3.17;;
21010;SDS011;10663;42.714;23.274;2023-11-19T01:52:47;3.80;;;3.27;;
21010;SDS011;10663;42.714;23.274;2023-11-19T01:54:18;4.78;;;3.25;;
21010;SDS011;10663;42.714;23.274;2023-11-19T01:55:49;3.80;;;3.50;;
21010;SDS011;10663;42.714;23.274;2023-11-19T01:57:21;3.92;;;3.53;;
21010;SDS011;10663;42.714;23.274;2023-11-19T01:58:54;3.78;;;3.47;;
21010;SDS011;10663;42.714;23.274;2023-11-19T02:00:26;3.97;;;3.58;;
21010;SDS011;10663;42.714;23.274;2023-11-19T02:01:57;3.90;;;3.50;;
21010;SDS011;10663;42.714;23.274;2023-11-19T02:03:28;3.90;;;3.60;;
21010;SDS011;10663;42.714;23.274;2023-11-19T02:04:59;3.78;;;3.38;;
21010;SDS011;10663;42.714;23.274;2023-11-19T02:06:30;4.03;;;3.65;;
21010;SDS011;10663;42.714;23.274;2023-11-19T02:08:04;3.85;;;3.47;;
21010;SDS011;10663;42.714;23.274;2023-11-19T02:09:35;3.85;;;3.40;;
21010;SDS011;10663;42.714;23.274;2023-11-19T02:11:06;3.90;;;3.50;;
21010;SDS011;10663;42.714;23.274;2023-11-19T02:12:37;3.70;;;3.40;;
21010;SDS011;10663;42.714;23.274;2023-11-19T02:14:08;3.67;;;3.38;;
21010;SDS011;10663;42.714;23.274;2023-11-19T02:15:40;3.45;;;3.15;;
21010;SDS011;10663;42.714;23.274;2023-11-19T02:17:27;3.55;;;3.25;;
21010;SDS011;10663;42.714;23.274;2023-11-19T02:18:58;4.05;;;3.47;;
21010;SDS011;10663;42.714;23.274;2023-11-19T02:20:29;4.10;;;3.30;;
21010;SDS011;10663;42.714;23.274;2023-11-19T02:22:00;3.83;;;3.45;;
21010;SDS011;10663;42.714;23.274;2023-11-19T02:23:31;3.83;;;3.50;;
21010;SDS011;10663;42.714;23.274;2023-11-19T02:25:06;3.80;;;3.47;;
21010;SDS011;10663;42.714;23.274;2023-11-19T02:26:44;3.33;;;3.03;;
21010;SDS011;10663;42.714;23.274;2023-11-19T02:28:36;3.55;;;3.25;;
21010;SDS011;10663;42.714;23.274;2023-11-19T02:30:07;3.42;;;3.13;;
21010;SDS011;10663;42.714;23.274;2023-11-19T02:31:38;4.10;;;3.70;;
21010;SDS011;10663;42.714;23.274;2023-11-19T02:33:09;4.60;;;3.60;;
21010;SDS011;10663;42.714;23.274;2023-11-19T02:34:40;3.88;;;3.47;;
21010;SDS011;10663;42.714;23.274;2023-11-19T02:36:11;4.40;;;3.50;;
21010;SDS011;10663;42.714;23.274;2023-11-19T02:37:41;3.85;;;3.45;;
21010;SDS011;10663;42.714;23.274;2023-11-19T02:39:12;4.57;;;3.63;;
21010;SDS011;10663;42.714;23.274;2023-11-19T02:40:43;3.78;;;3.47;;
21010;SDS011;10663;42.714;23.274;2023-11-19T02:42:14;3.80;;;3.50;;
21010;SDS011;10663;42.714;23.274;2023-11-19T02:43:45;3.85;;;3.30;;
21010;SDS011;10663;42.714;23.274;2023-11-19T02:45:18;4.10;;;3.70;;
21010;SDS011;10663;42.714;23.274;2023-11-19T02:46:49;3.90;;;3.47;;
21010;SDS011;10663;42.714;23.274;2023-11-19T02:48:20;4.23;;;3.83;;
21010;SDS011;10663;42.714;23.274;2023-11-19T02:49:51;4.07;;;3.67;;
21010;SDS011;10663;42.714;23.274;2023-11-19T02:51:23;3.50;;;3.20;;
21010;SDS011;10663;42.714;23.274;2023-11-19T02:52:55;3.95;;;3.55;;
21010;SDS011;10663;42.714;23.274;2023-11-19T02:54:26;4.57;;;3.60;;
21010;SDS011;10663;42.714;23.274;2023-11-19T02:55:57;3.50;;;3.20;;
21010;SDS011;10663;42.714;23.274;2023-11-19T02:57:36;4.13;;;3.72;;
21010;SDS011;10663;42.714;23.274;2023-11-19T02:59:07;3.63;;;3.22;;
21010;SDS011;10663;42.714;23.274;2023-11-19T03:00:46;3.97;;;3.53;;
21010;SDS011;10663;42.714;23.274;2023-11-19T03:02:24;4.40;;;3.97;;
21010;SDS011;10663;42.714;23.274;2023-11-19T03:04:03;4.20;;;3.80;;
21010;SDS011;10663;42.714;23.274;2023-11-19T03:05:34;3.80;;;3.50;;
21010;SDS011;10663;42.714;23.274;2023-11-19T03:07:06;4.90;;;3.63;;
21010;SDS011;10663;42.714;23.274;2023-11-19T03:08:37;4.00;;;3.70;;
21010;SDS011;10663;42.714;23.274;2023-11-19T03:10:08;4.22;;;3.70;;
21010;SDS011;10663;42.714;23.274;2023-11-19T03:11:42;4.88;;;3.88;;
21010;SDS011;10663;42.714;23.274;2023-11-19T03:13:13;4.10;;;3.70;;
21010;SDS011;10663;42.714;23.274;2023-11-19T03:14:44;5.45;;;3.90;;
21010;SDS011;10663;42.714;23.274;2023-11-19T03:16:18;4.03;;;3.63;;
21010;SDS011;10663;42.714;23.274;2023-11-19T03:17:48;4.18;;;3.78;;
21010;SDS011;10663;42.714;23.274;2023-11-19T03:19:20;4.22;;;3.67;;
21010;SDS011;10663;42.714;23.274;2023-11-19T03:20:51;4.22;;;3.63;;
21010;SDS011;10663;42.714;23.274;2023-11-19T03:22:22;3.92;;;3.53;;
21010;SDS011;10663;42.714;23.274;2023-11-19T03:23:53;4.65;;;3.80;;
21010;SDS011;10663;42.714;23.274;2023-11-19T03:25:26;3.88;;;3.47;;
21010;SDS011;10663;42.714;23.274;2023-11-19T03:27:03;4.53;;;4.10;;
21010;SDS011;10663;42.714;23.274;2023-11-19T03:28:34;4.53;;;3.70;;
21010;SDS011;10663;42.714;23.274;2023-11-19T03:30:14;4.33;;;3.80;;
21010;SDS011;10663;42.714;23.274;2023-11-19T03:31:44;4.00;;;3.60;;
21010;SDS011;10663;42.714;23.274;2023-11-19T03:33:15;3.50;;;3.20;;
21010;SDS011;10663;42.714;23.274;2023-11-19T03:34:46;4.00;;;3.55;;
21010;SDS011;10663;42.714;23.274;2023-11-19T03:36:16;3.70;;;3.40;;
21010;SDS011;10663;42.714;23.274;2023-11-19T03:37:47;4.95;;;3.92;;
21010;SDS011;10663;42.714;23.274;2023-11-19T03:39:20;4.37;;;3.57;;
21010;SDS011;10663;42.714;23.274;2023-11-19T03:40:51;4.10;;;3.70;;
21010;SDS011;10663;42.714;23.274;2023-11-19T03:42:22;3.60;;;3.30;;
21010;SDS011;10663;42.714;23.274;2023-11-19T03:43:52;4.13;;;3.70;;
21010;SDS011;10663;42.714;23.274;2023-11-19T03:45:23;4.18;;;3.70;;
21010;SDS011;10663;42.714;23.274;2023-11-19T03:46:55;3.92;;;3.35;;
21010;SDS011;10663;42.714;23.274;2023-11-19T03:48:25;4.20;;;3.75;;
21010;SDS011;10663;42.714;23.274;2023-11-19T03:49:56;4.73;;;4.07;;
21010;SDS011;10663;42.714;23.274;2023-11-19T03:51:27;3.73;;;3.40;;
21010;SDS011;10663;42.714;23.274;2023-11-19T03:52:57;4.07;;;3.78;;
21010;SDS011;10663;42.714;23.274;2023-11-19T03:54:28;4.22;;;3.83;;
21010;SDS011;10663;42.714;23.274;2023-11-19T03:55:59;3.80;;;3.50;;
21010;SDS011;10663;42.714;23.274;2023-11-19T03:57:30;5.13;;;4.13;;
21010;SDS011;10663;42.714;23.274;2023-11-19T03:59:00;4.10;;;3.70;;
21010;SDS011;10663;42.714;23.274;2023-11-19T04:00:31;3.50;;;3.17;;
21010;SDS011;10663;42.714;23.274;2023-11-19T04:02:02;3.67;;;3.38;;
21010;SDS011;10663;42.714;23.274;2023-11-19T04:03:33;3.80;;;3.50;;
21010;SDS011;10663;42.714;23.274;2023-11-19T04:05:04;4.20;;;3.80;;
21010;SDS011;10663;42.714;23.274;2023-11-19T04:06:35;4.20;;;3.80;;
21010;SDS011;10663;42.714;23.274;2023-11-19T04:08:06;5.30;;;3.50;;
21010;SDS011;10663;42.714;23.274;2023-11-19T04:09:37;3.70;;;3.30;;
21010;SDS011;10663;42.714;23.274;2023-11-19T04:11:08;3.60;;;3.30;;
21010;SDS011;10663;42.714;23.274;2023-11-19T04:12:39;4.50;;;3.50;;
21010;SDS011;10663;42.714;23.274;2023-11-19T04:14:09;3.80;;;3.50;;
21010;SDS011;10663;42.714;23.274;2023-11-19T04:15:40;4.10;;;3.70;;
21010;SDS011;10663;42.714;23.274;2023-11-19T04:17:11;4.03;;;3.63;;
21010;SDS011;10663;42.714;23.274;2023-11-19T04:18:41;4.32;;;3.70;;
21010;SDS011;10663;42.714;23.274;2023-11-19T04:20:12;4.10;;;3.70;;
21010;SDS011;10663;42.714;23.274;2023-11-19T04:21:43;4.00;;;3.60;;
21010;SDS011;10663;42.714;23.274;2023-11-19T04:23:14;4.00;;;3.60;;
21010;SDS011;10663;42.714;23.274;2023-11-19T04:24:45;4.28;;;3.63;;
21010;SDS011;10663;42.714;23.274;2023-11-19T04:26:16;4.20;;;3.72;;
21010;SDS011;10663;42.714;23.274;2023-11-19T04:27:46;5.03;;;4.00;;
21010;SDS011;10663;42.714;23.274;2023-11-19T04:29:18;4.07;;;3.53;;
21010;SDS011;10663;42.714;23.274;2023-11-19T04:30:49;4.10;;;3.63;;
21010;SDS011;10663;42.714;23.274;2023-11-19T04:32:21;4.40;;;4.00;;
21010;SDS011;10663;42.714;23.274;2023-11-19T04:33:53;4.43;;;3.92;;
21010;SDS011;10663;42.714;23.274;2023-11-19T04:35:25;4.40;;;4.00;;
21010;SDS011;10663;42.714;23.274;2023-11-19T04:36:56;3.97;;;3.55;;
21010;SDS011;10663;42.714;23.274;2023-11-19T04:38:27;5.25;;;4.28;;
21010;SDS011;10663;42.714;23.274;2023-11-19T04:39:57;5.00;;;3.85;;
21010;SDS011;10663;42.714;23.274;2023-11-19T04:41:30;4.05;;;3.75;;
21010;SDS011;10663;42.714;23.274;2023-11-19T04:43:01;4.50;;;4.10;;
21010;SDS011;10663;42.714;23.274;2023-11-19T04:44:31;4.22;;;3.83;;
21010;SDS011;10663;42.714;23.274;2023-11-19T04:46:03;4.63;;;4.05;;
21010;SDS011;10663;42.714;23.274;2023-11-19T04:47:34;4.43;;;4.00;;
21010;SDS011;10663;42.714;23.274;2023-11-19T04:49:05;4.38;;;3.80;;
21010;SDS011;10663;42.714;23.274;2023-11-19T04:50:37;4.40;;;4.00;;
21010;SDS011;10663;42.714;23.274;2023-11-19T04:52:07;5.27;;;4.17;;
21010;SDS011;10663;42.714;23.274;2023-11-19T04:53:38;4.43;;;3.83;;
21010;SDS011;10663;42.714;23.274;2023-11-19T04:55:09;4.38;;;3.95;;
21010;SDS011;10663;42.714;23.274;2023-11-19T04:56:44;4.20;;;3.80;;
21010;SDS011;10663;42.714;23.274;2023-11-19T04:58:16;4.17;;;3.77;;
21010;SDS011;10663;42.714;23.274;2023-11-19T04:59:47;4.40;;;4.00;;
21010;SDS011;10663;42.714;23.274;2023-11-19T05:01:17;4.82;;;4.20;;
21010;SDS011;10663;42.714;23.274;2023-11-19T05:02:48;4.20;;;3.80;;
21010;SDS011;10663;42.714;23.274;2023-11-19T05:04:19;4.45;;;4.05;;
21010;SDS011;10663;42.714;23.274;2023-11-19T05:05:49;4.00;;;3.60;;
21010;SDS011;10663;42.714;23.274;2023-11-19T05:07:20;4.20;;;3.80;;
21010;SDS011;10663;42.714;23.274;2023-11-19T05:08:51;4.33;;;4.00;;
21010;SDS011;10663;42.714;23.274;2023-11-19T05:10:22;4.40;;;4.00;;
21010;SDS011;10663;42.714;23.274;2023-11-19T05:11:52;5.55;;;4.20;;
21010;SDS011;10663;42.714;23.274;2023-11-19T05:13:23;4.32;;;3.92;;
21010;SDS011;10663;42.714;23.274;2023-11-19T05:14:54;4.03;;;3.63;;
21010;SDS011;10663;42.714;23.274;2023-11-19T05:16:25;4.18;;;3.70;;
21010;SDS011;10663;42.714;23.274;2023-11-19T05:17:56;4.20;;;3.80;;
21010;SDS011;10663;42.714;23.274;2023-11-19T05:19:27;4.35;;;3.88;;
21010;SDS011;10663;42.714;23.274;2023-11-19T05:20:58;4.10;;;3.70;;
21010;SDS011;10663;42.714;23.274;2023-11-19T05:22:28;4.18;;;3.78;;
21010;SDS011;10663;42.714;23.274;2023-11-19T05:23:59;4.20;;;3.80;;
21010;SDS011;10663;42.714;23.274;2023-11-19T05:25:30;4.50;;;4.10;;
21010;SDS011;10663;42.714;23.274;2023-11-19T05:27:00;4.85;;;3.85;;
21010;SDS011;10663;42.714;23.274;2023-11-19T05:28:31;4.43;;;3.70;;
21010;SDS011;10663;42.714;23.274;2023-11-19T05:30:05;3.90;;;3.50;;
21010;SDS011;10663;42.714;23.274;2023-11-19T05:31:40;5.10;;;4.30;;
21010;SDS011;10663;42.714;23.274;2023-11-19T05:33:11;4.47;;;4.07;;
21010;SDS011;10663;42.714;23.274;2023-11-19T05:34:42;4.43;;;3.95;;
21010;SDS011;10663;42.714;23.274;2023-11-19T05:36:12;5.35;;;4.20;;
21010;SDS011;10663;42.714;23.274;2023-11-19T05:37:43;4.55;;;4.10;;
21010;SDS011;10663;42.714;23.274;2023-11-19T05:39:14;4.70;;;3.95;;
21010;SDS011;10663;42.714;23.274;2023-11-19T05:40:45;4.22;;;3.83;;
21010;SDS011;10663;42.714;23.274;2023-11-19T05:42:18;3.80;;;3.50;;
21010;SDS011;10663;42.714;23.274;2023-11-19T05:43:49;4.20;;;3.80;;
21010;SDS011;10663;42.714;23.274;2023-11-19T05:45:20;4.53;;;4.13;;
21010;SDS011;10663;42.714;23.274;2023-11-19T05:46:50;4.55;;;4.13;;
21010;SDS011;10663;42.714;23.274;2023-11-19T05:48:21;4.37;;;3.97;;
21010;SDS011;10663;42.714;23.274;2023-11-19T05:49:52;4.78;;;4.20;;
21010;SDS011;10663;42.714;23.274;2023-11-19T05:51:23;4.87;;;4.03;;
21010;SDS011;10663;42.714;23.274;2023-11-19T05:52:55;4.82;;;4.32;;
21010;SDS011;10663;42.714;23.274;2023-11-19T05:54:25;4.20;;;3.80;;
21010;SDS011;10663;42.714;23.274;2023-11-19T05:55:56;4.10;;;3.70;;
21010;SDS011;10663;42.714;23.274;2023-11-19T05:57:28;4.40;;;4.00;;
21010;SDS011;10663;42.714;23.274;2023-11-19T05:58:59;4.30;;;3.90;;
21010;SDS011;10663;42.714;23.274;2023-11-19T06:00:37;4.72;;;4.03;;
21010;SDS011;10663;42.714;23.274;2023-11-19T06:02:09;4.90;;;4.18;;
21010;SDS011;10663;42.714;23.274;2023-11-19T06:03:39;5.33;;;4.40;;
21010;SDS011;10663;42.714;23.274;2023-11-19T06:05:10;4.88;;;4.38;;
21010;SDS011;10663;42.714;23.274;2023-11-19T06:06:41;5.28;;;4.45;;
21010;SDS011;10663;42.714;23.274;2023-11-19T06:08:12;5.20;;;4.60;;
21010;SDS011;10663;42.714;23.274;2023-11-19T06:09:43;4.93;;;4.40;;
21010;SDS011;10663;42.714;23.274;2023-11-19T06:11:14;4.65;;;4.13;;
21010;SDS011;10663;42.714;23.274;2023-11-19T06:12:48;4.50;;;4.10;;
21010;SDS011;10663;42.714;23.274;2023-11-19T06:14:26;5.75;;;4.15;;
21010;SDS011;10663;42.714;23.274;2023-11-19T06:15:56;4.37;;;3.97;;
21010;SDS011;10663;42.714;23.274;2023-11-19T06:17:27;4.95;;;4.20;;
21010;SDS011;10663;42.714;23.274;2023-11-19T06:18:58;4.70;;;4.20;;
21010;SDS011;10663;42.714;23.274;2023-11-19T06:20:32;4.80;;;4.30;;
21010;SDS011;10663;42.714;23.274;2023-11-19T06:22:03;4.53;;;4.13;;
21010;SDS011;10663;42.714;23.274;2023-11-19T06:23:34;5.17;;;4.10;;
21010;SDS011;10663;42.714;23.274;2023-11-19T06:25:05;4.70;;;4.20;;
21010;SDS011;10663;42.714;23.274;2023-11-19T06:26:37;4.75;;;4.10;;
21010;SDS011;10663;42.714;23.274;2023-11-19T06:28:08;4.28;;;3.88;;
21010;SDS011;10663;42.714;23.274;2023-11-19T06:29:39;4.53;;;4.10;;
21010;SDS011;10663;42.714;23.274;2023-11-19T06:31:11;5.30;;;4.18;;
21010;SDS011;10663;42.714;23.274;2023-11-19T06:32:42;4.57;;;3.90;;
21010;SDS011;10663;42.714;23.274;2023-11-19T06:34:12;4.35;;;3.95;;
21010;SDS011;10663;42.714;23.274;2023-11-19T06:35:43;4.78;;;4.10;;
21010;SDS011;10663;42.714;23.274;2023-11-19T06:37:14;4.60;;;4.13;;
21010;SDS011;10663;42.714;23.274;2023-11-19T06:38:45;5.20;;;4.20;;
21010;SDS011;10663;42.714;23.274;2023-11-19T06:40:15;5.47;;;4.30;;
21010;SDS011;10663;42.714;23.274;2023-11-19T06:41:46;5.55;;;4.60;;
21010;SDS011;10663;42.714;23.274;2023-11-19T06:43:18;5.53;;;4.63;;
21010;SDS011;10663;42.714;23.274;2023-11-19T06:44:49;4.80;;;4.30;;
21010;SDS011;10663;42.714;23.274;2023-11-19T06:46:19;4.80;;;4.30;;
21010;SDS011;10663;42.714;23.274;2023-11-19T06:47:50;5.28;;;4.10;;
21010;SDS011;10663;42.714;23.274;2023-11-19T06:49:21;4.40;;;4.00;;
21010;SDS011;10663;42.714;23.274;2023-11-19T06:50:52;4.90;;;4.10;;
21010;SDS011;10663;42.714;23.274;2023-11-19T06:52:23;4.60;;;4.20;;
21010;SDS011;10663;42.714;23.274;2023-11-19T06:53:54;5.38;;;4.10;;
21010;SDS011;10663;42.714;23.274;2023-11-19T06:55:24;5.57;;;4.10;;
21010;SDS011;10663;42.714;23.274;2023-11-19T06:56:56;6.32;;;4.45;;
21010;SDS011;10663;42.714;23.274;2023-11-19T06:58:28;4.78;;;4.22;;
21010;SDS011;10663;42.714;23.274;2023-11-19T06:59:59;6.57;;;4.67;;
21010;SDS011;10663;42.714;23.274;2023-11-19T07:01:34;5.22;;;4.53;;
21010;SDS011;10663;42.714;23.274;2023-11-19T07:03:06;4.90;;;4.40;;
21010;SDS011;10663;42.714;23.274;2023-11-19T07:04:39;6.00;;;4.50;;
21010;SDS011;10663;42.714;23.274;2023-11-19T07:06:10;4.88;;;4.38;;
21010;SDS011;10663;42.714;23.274;2023-11-19T07:07:40;5.45;;;4.45;;
21010;SDS011;10663;42.714;23.274;2023-11-19T07:09:11;5.13;;;4.30;;
21010;SDS011;10663;42.714;23.274;2023-11-19T07:10:42;4.80;;;4.20;;
21010;SDS011;10663;42.714;23.274;2023-11-19T07:12:13;5.70;;;4.63;;
21010;SDS011;10663;42.714;23.274;2023-11-19T07:13:44;5.50;;;4.57;;
21010;SDS011;10663;42.714;23.274;2023-11-19T07:15:16;6.85;;;4.32;;
21010;SDS011;10663;42.714;23.274;2023-11-19T07:16:48;5.22;;;4.68;;
21010;SDS011;10663;42.714;23.274;2023-11-19T07:18:18;4.80;;;4.40;;
21010;SDS011;10663;42.714;23.274;2023-11-19T07:19:52;4.90;;;4.40;;
21010;SDS011;10663;42.714;23.274;2023-11-19T07:21:23;5.05;;;4.55;;
21010;SDS011;10663;42.714;23.274;2023-11-19T07:22:53;6.32;;;5.22;;
21010;SDS011;10663;42.714;23.274;2023-11-19T07:24:25;4.93;;;4.43;;
21010;SDS011;10663;42.714;23.274;2023-11-19T07:25:58;5.57;;;4.95;;
21010;SDS011;10663;42.714;23.274;2023-11-19T07:27:29;6.03;;;4.67;;
21010;SDS011;10663;42.714;23.274;2023-11-19T07:28:59;5.10;;;4.60;;
21010;SDS011;10663;42.714;23.274;2023-11-19T07:30:33;5.18;;;4.68;;
21010;SDS011;10663;42.714;23.274;2023-11-19T07:32:04;4.60;;;4.15;;
21010;SDS011;10663;42.714;23.274;2023-11-19T07:33:35;5.03;;;4.53;;
21010;SDS011;10663;42.714;23.274;2023-11-19T07:35:06;6.00;;;4.63;;
21010;SDS011;10663;42.714;23.274;2023-11-19T07:36:37;4.93;;;4.22;;
21010;SDS011;10663;42.714;23.274;2023-11-19T07:38:08;5.20;;;4.57;;
21010;SDS011;10663;42.714;23.274;2023-11-19T07:39:39;4.87;;;4.37;;
21010;SDS011;10663;42.714;23.274;2023-11-19T07:41:11;4.38;;;3.95;;
21010;SDS011;10663;42.714;23.274;2023-11-19T07:42:44;5.13;;;4.63;;
21010;SDS011;10663;42.714;23.274;2023-11-19T07:44:15;4.80;;;4.40;;
21010;SDS011;10663;42.714;23.274;2023-11-19T07:45:46;4.90;;;4.30;;
21010;SDS011;10663;42.714;23.274;2023-11-19T07:47:17;4.60;;;4.20;;
21010;SDS011;10663;42.714;23.274;2023-11-19T07:48:48;5.18;;;4.35;;
21010;SDS011;10663;42.714;23.274;2023-11-19T07:50:19;4.97;;;4.53;;
21010;SDS011;10663;42.714;23.274;2023-11-19T07:51:57;5.53;;;4.13;;
21010;SDS011;10663;42.714;23.274;2023-11-19T07:53:28;5.00;;;4.50;;
21010;SDS011;10663;42.714;23.274;2023-11-19T07:54:59;5.05;;;4.50;;
21010;SDS011;10663;42.714;23.274;2023-11-19T07:56:29;4.53;;;4.10;;
21010;SDS011;10663;42.714;23.274;2023-11-19T07:58:00;4.93;;;4.47;;
21010;SDS011;10663;42.714;23.274;2023-11-19T07:59:31;5.87;;;4.53;;
21010;SDS011;10663;42.714;23.274;2023-11-19T08:01:02;4.77;;;4.37;;
21010;SDS011;10663;42.714;23.274;2023-11-19T08:02:32;4.88;;;4.38;;
21010;SDS011;10663;42.714;23.274;2023-11-19T08:04:03;5.65;;;3.92;;
21010;SDS011;10663;42.714;23.274;2023-11-19T08:05:34;4.45;;;4.05;;
21010;SDS011;10663;42.714;23.274;2023-11-19T08:07:05;4.60;;;4.20;;
21010;SDS011;10663;42.714;23.274;2023-11-19T08:08:36;4.70;;;4.30;;
21010;SDS011;10663;42.714;23.274;2023-11-19T08:10:08;6.00;;;4.50;;
21010;SDS011;10663;42.714;23.274;2023-11-19T08:11:41;5.53;;;4.38;;
21010;SDS011;10663;42.714;23.274;2023-11-19T08:13:12;5.20;;;4.70;;
21010;SDS011;10663;42.714;23.274;2023-11-19T08:14:43;5.00;;;4.50;;
21010;SDS011;10663;42.714;23.274;2023-11-19T08:16:14;5.05;;;4.55;;
21010;SDS011;10663;42.714;23.274;2023-11-19T08:17:45;5.10;;;4.60;;
21010;SDS011;10663;42.714;23.274;2023-11-19T08:19:16;5.43;;;4.93;;
21010;SDS011;10663;42.714;23.274;2023-11-19T08:20:46;5.40;;;4.90;;
21010;SDS011;10663;42.714;23.274;2023-11-19T08:22:22;5.10;;;4.60;;
21010;SDS011;10663;42.714;23.274;2023-11-19T08:23:53;5.27;;;4.70;;
21010;SDS011;10663;42.714;23.274;2023-11-19T08:25:24;4.72;;;4.22;;
21010;SDS011;10663;42.714;23.274;2023-11-19T08:26:54;5.13;;;4.63;;
21010;SDS011;10663;42.714;23.274;2023-11-19T08:28:25;5.40;;;4.90;;
21010;SDS011;10663;42.714;23.274;2023-11-19T08:29:56;5.35;;;4.80;;
21010;SDS011;10663;42.714;23.274;2023-11-19T08:31:27;6.13;;;5.13;;
21010;SDS011;10663;42.714;23.274;2023-11-19T08:32:57;9.37;;;5.80;;
21010;SDS011;10663;42.714;23.274;2023-11-19T08:34:30;5.50;;;4.90;;
21010;SDS011;10663;42.714;23.274;2023-11-19T08:36:01;5.13;;;4.63;;
21010;SDS011;10663;42.714;23.274;2023-11-19T08:37:32;5.00;;;4.50;;
21010;SDS011;10663;42.714;23.274;2023-11-19T08:39:03;5.10;;;4.60;;
21010;SDS011;10663;42.714;23.274;2023-11-19T08:40:34;5.00;;;4.50;;
21010;SDS011;10663;42.714;23.274;2023-11-19T08:42:05;5.03;;;4.57;;
21010;SDS011;10663;42.714;23.274;2023-11-19T08:43:36;5.32;;;4.82;;
21010;SDS011;10663;42.714;23.274;2023-11-19T08:45:07;5.40;;;4.82;;
21010;SDS011;10663;42.714;23.274;2023-11-19T08:46:48;6.20;;;5.00;;
21010;SDS011;10663;42.714;23.274;2023-11-19T08:48:19;5.35;;;4.70;;
21010;SDS011;10663;42.714;23.274;2023-11-19T08:49:50;4.82;;;4.30;;
21010;SDS011;10663;42.714;23.274;2023-11-19T08:51:22;5.00;;;4.50;;
21010;SDS011;10663;42.714;23.274;2023-11-19T08:52:55;5.25;;;4.75;;
21010;SDS011;10663;42.714;23.274;2023-11-19T08:54:26;5.30;;;4.47;;
21010;SDS011;10663;42.714;23.274;2023-11-19T08:55:57;4.90;;;4.47;;
21010;SDS011;10663;42.714;23.274;2023-11-19T08:57:28;4.93;;;4.47;;
21010;SDS011;10663;42.714;23.274;2023-11-19T08:58:59;4.87;;;4.20;;
21010;SDS011;10663;42.714;23.274;2023-11-19T09:00:29;4.57;;;4.17;;
21010;SDS011;10663;42.714;23.274;2023-11-19T09:02:03;4.70;;;4.20;;